ラパス の空港の天気 - METARとTAF

エル・アルト国際空港 ( SLLP / LPB ) - ボリビア ラパス
飛行場実況気象(Metar)
観測時間05/26 19:00 BOT (05/26 23:00 UTC)
風向・風速東 4m/s
視程10km以上
天気現象
なし
気温4℃
湿度26%
気圧1040hPa
METARSLLP 262300Z 08007KT 9999 NSC 04/M14 Q1040
過去の天気等 Google飛行場航空写真 Wunderground天気予報

過去48時間のMETAR

飛行場予報(TAF)
発表時間: 5/26 12:00 BOT (5/26 16:00 UTC)
予報対象時間: 26日14時 BOT ~ 27日14時 BOT
風向・風速西南西 6m/s
視程10km以上
なし
26日19時 BOT ~ 26日23時 BOT に徐々に
風向・風速不定 1m/s
27日10時 BOT ~ 27日13時 BOT に徐々に
風向・風速西 5m/s
TAF SLLP 261600Z 2618/2718 24012KT 9999 NSC TX16/2620Z TNM05/2710Z
BECMG 2623/2703 VRB02KT
BECMG 2714/2717 26010KT